sensor_id;sensor_type;location;lat;lon;timestamp;temperature;humidity
19906;DHT22;10115;50.906;4.438;2022-07-24T00:02:08;19.30;99.90
19906;DHT22;10115;50.906;4.438;2022-07-24T00:04:34;19.40;99.90
19906;DHT22;10115;50.906;4.438;2022-07-24T00:07:00;19.40;99.90
19906;DHT22;10115;50.906;4.438;2022-07-24T00:09:25;19.50;99.90
19906;DHT22;10115;50.906;4.438;2022-07-24T00:11:51;19.50;99.90
19906;DHT22;10115;50.906;4.438;2022-07-24T00:14:17;19.50;99.90
19906;DHT22;10115;50.906;4.438;2022-07-24T00:16:42;19.60;99.90
19906;DHT22;10115;50.906;4.438;2022-07-24T00:19:08;19.60;99.90
19906;DHT22;10115;50.906;4.438;2022-07-24T00:21:34;19.70;99.90
19906;DHT22;10115;50.906;4.438;2022-07-24T00:23:59;19.70;99.90
19906;DHT22;10115;50.906;4.438;2022-07-24T00:26:25;19.60;99.90
19906;DHT22;10115;50.906;4.438;2022-07-24T00:28:51;19.60;99.90
19906;DHT22;10115;50.906;4.438;2022-07-24T00:31:17;19.60;99.90
19906;DHT22;10115;50.906;4.438;2022-07-24T00:33:44;19.60;99.90
19906;DHT22;10115;50.906;4.438;2022-07-24T00:36:11;19.60;99.90
19906;DHT22;10115;50.906;4.438;2022-07-24T00:38:36;19.50;99.90
19906;DHT22;10115;50.906;4.438;2022-07-24T00:41:02;19.40;99.90
19906;DHT22;10115;50.906;4.438;2022-07-24T00:43:28;19.30;99.90
19906;DHT22;10115;50.906;4.438;2022-07-24T00:45:53;19.30;99.90
19906;DHT22;10115;50.906;4.438;2022-07-24T00:48:19;19.30;99.90
19906;DHT22;10115;50.906;4.438;2022-07-24T00:50:45;19.20;99.90
19906;DHT22;10115;50.906;4.438;2022-07-24T00:53:11;19.20;99.90
19906;DHT22;10115;50.906;4.438;2022-07-24T00:55:38;19.20;99.90
19906;DHT22;10115;50.906;4.438;2022-07-24T00:58:04;19.10;99.90
19906;DHT22;10115;50.906;4.438;2022-07-24T01:00:29;19.00;99.90
19906;DHT22;10115;50.906;4.438;2022-07-24T01:02:55;19.00;99.90
19906;DHT22;10115;50.906;4.438;2022-07-24T01:05:21;18.90;99.90
19906;DHT22;10115;50.906;4.438;2022-07-24T01:07:47;18.90;99.90
19906;DHT22;10115;50.906;4.438;2022-07-24T01:10:13;18.80;99.90
19906;DHT22;10115;50.906;4.438;2022-07-24T01:12:39;18.90;99.90
19906;DHT22;10115;50.906;4.438;2022-07-24T01:15:07;18.80;99.90
19906;DHT22;10115;50.906;4.438;2022-07-24T01:17:35;18.80;99.90
19906;DHT22;10115;50.906;4.438;2022-07-24T01:20:03;18.80;99.90
19906;DHT22;10115;50.906;4.438;2022-07-24T01:22:29;18.80;99.90
19906;DHT22;10115;50.906;4.438;2022-07-24T01:24:55;18.80;99.90
19906;DHT22;10115;50.906;4.438;2022-07-24T01:27:24;18.80;99.90
19906;DHT22;10115;50.906;4.438;2022-07-24T01:29:51;18.70;99.90
19906;DHT22;10115;50.906;4.438;2022-07-24T01:32:17;18.70;99.90
19906;DHT22;10115;50.906;4.438;2022-07-24T01:34:43;18.60;99.90
19906;DHT22;10115;50.906;4.438;2022-07-24T01:37:09;18.60;99.90
19906;DHT22;10115;50.906;4.438;2022-07-24T01:39:35;18.60;99.90
19906;DHT22;10115;50.906;4.438;2022-07-24T01:42:01;18.60;99.90
19906;DHT22;10115;50.906;4.438;2022-07-24T01:44:27;18.60;99.90
19906;DHT22;10115;50.906;4.438;2022-07-24T01:46:53;18.70;99.90
19906;DHT22;10115;50.906;4.438;2022-07-24T01:49:19;18.60;99.90
19906;DHT22;10115;50.906;4.438;2022-07-24T01:51:44;18.60;99.90
19906;DHT22;10115;50.906;4.438;2022-07-24T01:54:10;18.70;99.90
19906;DHT22;10115;50.906;4.438;2022-07-24T01:56:36;18.70;99.90
19906;DHT22;10115;50.906;4.438;2022-07-24T01:59:01;18.70;99.90
19906;DHT22;10115;50.906;4.438;2022-07-24T02:01:27;18.70;99.90
19906;DHT22;10115;50.906;4.438;2022-07-24T02:03:54;18.70;99.90
19906;DHT22;10115;50.906;4.438;2022-07-24T02:06:20;18.70;99.90
19906;DHT22;10115;50.906;4.438;2022-07-24T02:08:45;18.70;99.90
19906;DHT22;10115;50.906;4.438;2022-07-24T02:11:11;18.70;99.90
19906;DHT22;10115;50.906;4.438;2022-07-24T02:13:37;18.60;99.90
19906;DHT22;10115;50.906;4.438;2022-07-24T02:16:03;18.50;99.90
19906;DHT22;10115;50.906;4.438;2022-07-24T02:18:29;18.50;99.90
19906;DHT22;10115;50.906;4.438;2022-07-24T02:20:54;18.40;99.90
19906;DHT22;10115;50.906;4.438;2022-07-24T02:23:20;18.40;99.90
19906;DHT22;10115;50.906;4.438;2022-07-24T02:25:47;18.40;99.90
19906;DHT22;10115;50.906;4.438;2022-07-24T02:28:14;18.40;99.90
19906;DHT22;10115;50.906;4.438;2022-07-24T02:30:40;18.40;99.90
19906;DHT22;10115;50.906;4.438;2022-07-24T02:33:06;18.40;99.90
19906;DHT22;10115;50.906;4.438;2022-07-24T02:35:32;18.40;99.90
19906;DHT22;10115;50.906;4.438;2022-07-24T02:37:58;18.40;99.90
19906;DHT22;10115;50.906;4.438;2022-07-24T02:40:24;18.40;99.90
19906;DHT22;10115;50.906;4.438;2022-07-24T02:42:49;18.40;99.90
19906;DHT22;10115;50.906;4.438;2022-07-24T02:45:16;18.40;99.90
19906;DHT22;10115;50.906;4.438;2022-07-24T02:47:53;18.30;99.90
19906;DHT22;10115;50.906;4.438;2022-07-24T02:50:21;18.40;99.90
19906;DHT22;10115;50.906;4.438;2022-07-24T02:52:48;18.50;99.90
19906;DHT22;10115;50.906;4.438;2022-07-24T02:55:13;18.50;99.90
19906;DHT22;10115;50.906;4.438;2022-07-24T02:57:40;18.60;99.90
19906;DHT22;10115;50.906;4.438;2022-07-24T03:00:08;18.50;99.90
19906;DHT22;10115;50.906;4.438;2022-07-24T03:02:34;18.50;99.90
19906;DHT22;10115;50.906;4.438;2022-07-24T03:05:00;18.60;99.90
19906;DHT22;10115;50.906;4.438;2022-07-24T03:07:27;18.50;99.90
19906;DHT22;10115;50.906;4.438;2022-07-24T03:09:53;18.50;99.90
19906;DHT22;10115;50.906;4.438;2022-07-24T03:12:19;18.30;99.90
19906;DHT22;10115;50.906;4.438;2022-07-24T03:14:44;18.20;99.90
19906;DHT22;10115;50.906;4.438;2022-07-24T03:17:10;18.10;99.90
19906;DHT22;10115;50.906;4.438;2022-07-24T03:19:36;18.00;99.90
19906;DHT22;10115;50.906;4.438;2022-07-24T03:22:01;18.00;99.90
19906;DHT22;10115;50.906;4.438;2022-07-24T03:24:27;18.00;99.90
19906;DHT22;10115;50.906;4.438;2022-07-24T03:26:52;18.00;99.90
19906;DHT22;10115;50.906;4.438;2022-07-24T03:29:18;18.00;99.90
19906;DHT22;10115;50.906;4.438;2022-07-24T03:31:44;17.90;99.90
19906;DHT22;10115;50.906;4.438;2022-07-24T03:34:10;17.90;99.90
19906;DHT22;10115;50.906;4.438;2022-07-24T03:36:36;17.90;99.90
19906;DHT22;10115;50.906;4.438;2022-07-24T03:39:02;17.90;99.90
19906;DHT22;10115;50.906;4.438;2022-07-24T03:41:28;17.90;99.90
19906;DHT22;10115;50.906;4.438;2022-07-24T03:43:54;17.90;99.90
19906;DHT22;10115;50.906;4.438;2022-07-24T03:46:20;17.90;99.90
19906;DHT22;10115;50.906;4.438;2022-07-24T03:48:46;17.90;99.90
19906;DHT22;10115;50.906;4.438;2022-07-24T03:51:12;18.20;99.90
19906;DHT22;10115;50.906;4.438;2022-07-24T03:53:37;18.30;99.90
19906;DHT22;10115;50.906;4.438;2022-07-24T03:56:08;18.30;99.90
19906;DHT22;10115;50.906;4.438;2022-07-24T03:58:33;18.40;99.90
19906;DHT22;10115;50.906;4.438;2022-07-24T04:00:59;18.40;99.90
19906;DHT22;10115;50.906;4.438;2022-07-24T04:03:26;18.20;99.90
19906;DHT22;10115;50.906;4.438;2022-07-24T04:05:51;18.10;99.90
19906;DHT22;10115;50.906;4.438;2022-07-24T04:08:17;18.20;99.90
19906;DHT22;10115;50.906;4.438;2022-07-24T04:10:42;18.30;99.90
19906;DHT22;10115;50.906;4.438;2022-07-24T04:13:08;18.30;99.90
19906;DHT22;10115;50.906;4.438;2022-07-24T04:15:34;18.40;99.90
19906;DHT22;10115;50.906;4.438;2022-07-24T04:17:59;18.60;99.90
19906;DHT22;10115;50.906;4.438;2022-07-24T04:20:25;18.60;99.90
19906;DHT22;10115;50.906;4.438;2022-07-24T04:22:50;18.50;99.90
19906;DHT22;10115;50.906;4.438;2022-07-24T04:25:17;18.40;99.90
19906;DHT22;10115;50.906;4.438;2022-07-24T04:27:43;18.10;99.90
19906;DHT22;10115;50.906;4.438;2022-07-24T04:30:10;18.00;99.90
19906;DHT22;10115;50.906;4.438;2022-07-24T04:32:36;17.80;99.90
19906;DHT22;10115;50.906;4.438;2022-07-24T04:35:04;17.80;99.90
19906;DHT22;10115;50.906;4.438;2022-07-24T04:37:30;17.90;99.90
19906;DHT22;10115;50.906;4.438;2022-07-24T04:39:55;18.10;99.90
19906;DHT22;10115;50.906;4.438;2022-07-24T04:42:21;18.10;99.90
19906;DHT22;10115;50.906;4.438;2022-07-24T04:44:47;18.20;99.90
19906;DHT22;10115;50.906;4.438;2022-07-24T04:47:12;18.30;99.90
19906;DHT22;10115;50.906;4.438;2022-07-24T04:49:38;18.30;99.90
19906;DHT22;10115;50.906;4.438;2022-07-24T04:52:04;18.20;99.90
19906;DHT22;10115;50.906;4.438;2022-07-24T04:54:30;18.30;99.90
19906;DHT22;10115;50.906;4.438;2022-07-24T04:56:55;18.30;99.90
19906;DHT22;10115;50.906;4.438;2022-07-24T04:59:21;18.30;99.90
19906;DHT22;10115;50.906;4.438;2022-07-24T05:01:47;18.30;99.90
19906;DHT22;10115;50.906;4.438;2022-07-24T05:04:12;18.40;99.90
19906;DHT22;10115;50.906;4.438;2022-07-24T05:06:39;18.60;99.90
19906;DHT22;10115;50.906;4.438;2022-07-24T05:09:05;18.80;99.90
19906;DHT22;10115;50.906;4.438;2022-07-24T05:11:30;18.90;99.90
19906;DHT22;10115;50.906;4.438;2022-07-24T05:13:56;18.70;99.90
19906;DHT22;10115;50.906;4.438;2022-07-24T05:16:22;18.50;99.90
19906;DHT22;10115;50.906;4.438;2022-07-24T05:18:47;18.50;99.90
19906;DHT22;10115;50.906;4.438;2022-07-24T05:21:13;18.50;99.90
19906;DHT22;10115;50.906;4.438;2022-07-24T05:23:41;18.60;99.90
19906;DHT22;10115;50.906;4.438;2022-07-24T05:26:08;18.80;99.90
19906;DHT22;10115;50.906;4.438;2022-07-24T05:28:34;18.80;99.90
19906;DHT22;10115;50.906;4.438;2022-07-24T05:31:00;18.90;99.90
19906;DHT22;10115;50.906;4.438;2022-07-24T05:33:25;18.90;99.90
19906;DHT22;10115;50.906;4.438;2022-07-24T05:35:51;18.90;99.90
19906;DHT22;10115;50.906;4.438;2022-07-24T05:38:17;19.00;99.90
19906;DHT22;10115;50.906;4.438;2022-07-24T05:40:43;19.10;99.90
19906;DHT22;10115;50.906;4.438;2022-07-24T05:43:09;19.20;99.90
19906;DHT22;10115;50.906;4.438;2022-07-24T05:45:34;19.20;99.90
19906;DHT22;10115;50.906;4.438;2022-07-24T05:48:00;19.20;99.90
19906;DHT22;10115;50.906;4.438;2022-07-24T05:50:25;19.20;99.90
19906;DHT22;10115;50.906;4.438;2022-07-24T05:52:51;19.30;99.90
19906;DHT22;10115;50.906;4.438;2022-07-24T05:55:17;19.30;99.90
19906;DHT22;10115;50.906;4.438;2022-07-24T05:57:43;19.30;99.90
19906;DHT22;10115;50.906;4.438;2022-07-24T06:00:09;19.40;99.90
19906;DHT22;10115;50.906;4.438;2022-07-24T06:02:35;19.50;99.90
19906;DHT22;10115;50.906;4.438;2022-07-24T06:05:01;19.60;99.90
19906;DHT22;10115;50.906;4.438;2022-07-24T06:07:26;19.50;99.90
19906;DHT22;10115;50.906;4.438;2022-07-24T06:09:52;19.70;99.90
19906;DHT22;10115;50.906;4.438;2022-07-24T06:12:18;19.70;99.90
19906;DHT22;10115;50.906;4.438;2022-07-24T06:14:43;19.70;99.90
19906;DHT22;10115;50.906;4.438;2022-07-24T06:17:09;19.80;99.90
19906;DHT22;10115;50.906;4.438;2022-07-24T06:19:35;19.80;99.90
19906;DHT22;10115;50.906;4.438;2022-07-24T06:22:00;19.90;99.90
19906;DHT22;10115;50.906;4.438;2022-07-24T06:24:26;20.10;99.90
19906;DHT22;10115;50.906;4.438;2022-07-24T06:26:52;20.30;99.90
19906;DHT22;10115;50.906;4.438;2022-07-24T06:29:17;20.30;99.90
19906;DHT22;10115;50.906;4.438;2022-07-24T06:31:43;20.20;99.90
19906;DHT22;10115;50.906;4.438;2022-07-24T06:34:08;20.30;99.90
19906;DHT22;10115;50.906;4.438;2022-07-24T06:36:34;20.40;99.90
19906;DHT22;10115;50.906;4.438;2022-07-24T06:39:00;20.50;99.90
19906;DHT22;10115;50.906;4.438;2022-07-24T06:41:26;20.70;99.90
19906;DHT22;10115;50.906;4.438;2022-07-24T06:43:51;20.70;99.90
19906;DHT22;10115;50.906;4.438;2022-07-24T06:46:17;20.90;99.90
19906;DHT22;10115;50.906;4.438;2022-07-24T06:48:43;20.90;99.90
19906;DHT22;10115;50.906;4.438;2022-07-24T06:51:08;20.90;99.90
19906;DHT22;10115;50.906;4.438;2022-07-24T06:53:34;21.00;99.90
19906;DHT22;10115;50.906;4.438;2022-07-24T06:56:01;21.00;99.90
19906;DHT22;10115;50.906;4.438;2022-07-24T06:58:26;21.10;99.90
19906;DHT22;10115;50.906;4.438;2022-07-24T07:00:52;21.20;99.90
19906;DHT22;10115;50.906;4.438;2022-07-24T07:03:18;21.40;99.90
19906;DHT22;10115;50.906;4.438;2022-07-24T07:05:44;21.40;99.90
19906;DHT22;10115;50.906;4.438;2022-07-24T07:08:09;21.40;99.90
19906;DHT22;10115;50.906;4.438;2022-07-24T07:10:35;21.50;99.90
19906;DHT22;10115;50.906;4.438;2022-07-24T07:13:00;21.60;99.90
19906;DHT22;10115;50.906;4.438;2022-07-24T07:15:26;21.60;99.90
19906;DHT22;10115;50.906;4.438;2022-07-24T07:17:52;21.80;99.90
19906;DHT22;10115;50.906;4.438;2022-07-24T07:20:18;22.00;99.90
19906;DHT22;10115;50.906;4.438;2022-07-24T07:22:44;22.00;99.90
19906;DHT22;10115;50.906;4.438;2022-07-24T07:25:10;22.00;99.90
19906;DHT22;10115;50.906;4.438;2022-07-24T07:27:36;22.10;99.90
19906;DHT22;10115;50.906;4.438;2022-07-24T07:30:04;22.30;99.90
19906;DHT22;10115;50.906;4.438;2022-07-24T07:32:30;22.40;99.90
19906;DHT22;10115;50.906;4.438;2022-07-24T07:34:56;22.60;99.90
19906;DHT22;10115;50.906;4.438;2022-07-24T07:37:21;22.60;99.90
19906;DHT22;10115;50.906;4.438;2022-07-24T07:39:47;22.70;99.90
19906;DHT22;10115;50.906;4.438;2022-07-24T07:42:13;22.80;99.90
19906;DHT22;10115;50.906;4.438;2022-07-24T07:44:38;22.80;99.90
19906;DHT22;10115;50.906;4.438;2022-07-24T07:47:04;23.00;99.90
19906;DHT22;10115;50.906;4.438;2022-07-24T07:49:30;23.10;99.90
19906;DHT22;10115;50.906;4.438;2022-07-24T07:51:56;22.90;99.90
19906;DHT22;10115;50.906;4.438;2022-07-24T07:54:22;22.90;99.90
19906;DHT22;10115;50.906;4.438;2022-07-24T07:56:47;23.10;99.90
19906;DHT22;10115;50.906;4.438;2022-07-24T07:59:13;23.40;99.90
19906;DHT22;10115;50.906;4.438;2022-07-24T08:01:39;23.30;99.90
19906;DHT22;10115;50.906;4.438;2022-07-24T08:04:05;23.20;99.90
19906;DHT22;10115;50.906;4.438;2022-07-24T08:06:30;23.40;99.90
19906;DHT22;10115;50.906;4.438;2022-07-24T08:08:56;23.70;99.90
19906;DHT22;10115;50.906;4.438;2022-07-24T08:11:22;24.00;99.90
19906;DHT22;10115;50.906;4.438;2022-07-24T08:13:47;24.30;99.90
19906;DHT22;10115;50.906;4.438;2022-07-24T08:16:13;24.40;99.90
19906;DHT22;10115;50.906;4.438;2022-07-24T08:18:39;24.50;99.90
19906;DHT22;10115;50.906;4.438;2022-07-24T08:21:05;24.10;99.90
19906;DHT22;10115;50.906;4.438;2022-07-24T08:23:31;23.90;99.90
19906;DHT22;10115;50.906;4.438;2022-07-24T08:25:56;24.00;99.90
19906;DHT22;10115;50.906;4.438;2022-07-24T08:28:22;24.10;99.90
19906;DHT22;10115;50.906;4.438;2022-07-24T08:30:50;24.20;99.90
19906;DHT22;10115;50.906;4.438;2022-07-24T08:33:15;24.40;99.90
19906;DHT22;10115;50.906;4.438;2022-07-24T08:35:41;24.50;99.90
19906;DHT22;10115;50.906;4.438;2022-07-24T08:38:07;24.70;99.90
19906;DHT22;10115;50.906;4.438;2022-07-24T08:40:36;24.60;99.90
19906;DHT22;10115;50.906;4.438;2022-07-24T08:43:03;24.50;99.90
19906;DHT22;10115;50.906;4.438;2022-07-24T08:45:29;24.50;99.90
19906;DHT22;10115;50.906;4.438;2022-07-24T08:48:00;24.70;99.90
19906;DHT22;10115;50.906;4.438;2022-07-24T08:50:27;24.70;99.90
19906;DHT22;10115;50.906;4.438;2022-07-24T08:52:53;24.70;99.90
19906;DHT22;10115;50.906;4.438;2022-07-24T08:55:20;25.00;99.90
19906;DHT22;10115;50.906;4.438;2022-07-24T08:57:46;25.00;99.90
19906;DHT22;10115;50.906;4.438;2022-07-24T09:00:12;24.90;99.90
19906;DHT22;10115;50.906;4.438;2022-07-24T09:02:38;25.00;99.90
19906;DHT22;10115;50.906;4.438;2022-07-24T09:05:04;25.00;99.90
19906;DHT22;10115;50.906;4.438;2022-07-24T09:07:30;25.40;99.90
19906;DHT22;10115;50.906;4.438;2022-07-24T09:10:05;25.40;99.90
19906;DHT22;10115;50.906;4.438;2022-07-24T09:12:43;25.50;99.90
19906;DHT22;10115;50.906;4.438;2022-07-24T09:17:47;25.60;99.90
19906;DHT22;10115;50.906;4.438;2022-07-24T09:20:12;25.70;99.90
19906;DHT22;10115;50.906;4.438;2022-07-24T09:22:40;25.60;99.90
19906;DHT22;10115;50.906;4.438;2022-07-24T09:27:33;25.70;99.90
19906;DHT22;10115;50.906;4.438;2022-07-24T09:29:58;25.80;99.90
19906;DHT22;10115;50.906;4.438;2022-07-24T09:32:24;26.10;99.90
19906;DHT22;10115;50.906;4.438;2022-07-24T09:34:53;26.00;99.90
19906;DHT22;10115;50.906;4.438;2022-07-24T09:37:20;25.80;99.90
19906;DHT22;10115;50.906;4.438;2022-07-24T09:39:46;25.80;99.90
19906;DHT22;10115;50.906;4.438;2022-07-24T09:42:12;26.00;99.90
19906;DHT22;10115;50.906;4.438;2022-07-24T09:44:38;26.00;99.90
19906;DHT22;10115;50.906;4.438;2022-07-24T09:47:09;26.20;99.90
19906;DHT22;10115;50.906;4.438;2022-07-24T09:49:36;26.30;99.90
19906;DHT22;10115;50.906;4.438;2022-07-24T09:54:32;26.40;99.90
19906;DHT22;10115;50.906;4.438;2022-07-24T09:57:19;26.50;99.90
19906;DHT22;10115;50.906;4.438;2022-07-24T09:59:53;26.50;99.90
19906;DHT22;10115;50.906;4.438;2022-07-24T10:02:22;26.60;99.90
19906;DHT22;10115;50.906;4.438;2022-07-24T10:04:50;26.40;99.90
19906;DHT22;10115;50.906;4.438;2022-07-24T10:07:18;26.40;99.90
19906;DHT22;10115;50.906;4.438;2022-07-24T10:09:50;26.50;99.90
19906;DHT22;10115;50.906;4.438;2022-07-24T10:12:21;26.50;99.90
19906;DHT22;10115;50.906;4.438;2022-07-24T10:14:49;26.50;99.90
19906;DHT22;10115;50.906;4.438;2022-07-24T10:17:16;26.60;99.90
19906;DHT22;10115;50.906;4.438;2022-07-24T10:19:50;26.90;99.90
19906;DHT22;10115;50.906;4.438;2022-07-24T10:22:19;27.20;99.90
19906;DHT22;10115;50.906;4.438;2022-07-24T10:27:33;27.30;99.90
19906;DHT22;10115;50.906;4.438;2022-07-24T10:30:08;27.20;99.90
19906;DHT22;10115;50.906;4.438;2022-07-24T10:32:36;27.20;99.90
19906;DHT22;10115;50.906;4.438;2022-07-24T10:35:20;26.80;99.90
19906;DHT22;10115;50.906;4.438;2022-07-24T10:38:07;27.20;99.90
19906;DHT22;10115;50.906;4.438;2022-07-24T10:40:52;27.80;99.90
19906;DHT22;10115;50.906;4.438;2022-07-24T10:43:21;27.50;99.90
19906;DHT22;10115;50.906;4.438;2022-07-24T10:51:12;27.90;99.90
19906;DHT22;10115;50.906;4.438;2022-07-24T10:53:48;27.90;99.90
19906;DHT22;10115;50.906;4.438;2022-07-24T10:56:18;28.20;99.90
19906;DHT22;10115;50.906;4.438;2022-07-24T10:59:12;28.20;99.90
19906;DHT22;10115;50.906;4.438;2022-07-24T11:01:45;28.00;99.90
19906;DHT22;10115;50.906;4.438;2022-07-24T11:06:46;28.40;99.90
19906;DHT22;10115;50.906;4.438;2022-07-24T11:09:13;28.70;99.90
19906;DHT22;10115;50.906;4.438;2022-07-24T11:12:02;28.50;99.90
19906;DHT22;10115;50.906;4.438;2022-07-24T11:17:39;28.00;99.90
19906;DHT22;10115;50.906;4.438;2022-07-24T11:20:08;28.20;99.90
19906;DHT22;10115;50.906;4.438;2022-07-24T11:25:19;28.20;99.90
19906;DHT22;10115;50.906;4.438;2022-07-24T11:30:29;28.70;99.90
19906;DHT22;10115;50.906;4.438;2022-07-24T11:32:56;28.70;99.90
19906;DHT22;10115;50.906;4.438;2022-07-24T11:35:36;28.30;99.90
19906;DHT22;10115;50.906;4.438;2022-07-24T11:38:04;28.50;99.90
19906;DHT22;10115;50.906;4.438;2022-07-24T11:40:31;28.50;99.90
19906;DHT22;10115;50.906;4.438;2022-07-24T11:42:58;28.80;99.90
19906;DHT22;10115;50.906;4.438;2022-07-24T11:45:25;28.60;99.90
19906;DHT22;10115;50.906;4.438;2022-07-24T11:47:51;28.90;99.90
19906;DHT22;10115;50.906;4.438;2022-07-24T11:50:23;29.10;99.90
19906;DHT22;10115;50.906;4.438;2022-07-24T11:52:50;29.60;99.90
19906;DHT22;10115;50.906;4.438;2022-07-24T11:55:19;29.90;99.90
19906;DHT22;10115;50.906;4.438;2022-07-24T11:57:50;30.00;99.90
19906;DHT22;10115;50.906;4.438;2022-07-24T12:00:19;29.70;99.90
19906;DHT22;10115;50.906;4.438;2022-07-24T12:02:45;29.40;99.90
19906;DHT22;10115;50.906;4.438;2022-07-24T12:05:12;29.10;99.90
19906;DHT22;10115;50.906;4.438;2022-07-24T12:07:38;29.10;99.90
19906;DHT22;10115;50.906;4.438;2022-07-24T12:10:04;29.00;99.90
19906;DHT22;10115;50.906;4.438;2022-07-24T12:12:32;29.00;99.90
19906;DHT22;10115;50.906;4.438;2022-07-24T12:17:35;29.10;99.90
19906;DHT22;10115;50.906;4.438;2022-07-24T12:20:20;29.60;99.90
19906;DHT22;10115;50.906;4.438;2022-07-24T12:22:46;29.20;99.90
19906;DHT22;10115;50.906;4.438;2022-07-24T12:25:12;29.00;99.90
19906;DHT22;10115;50.906;4.438;2022-07-24T12:27:42;29.20;99.90
19906;DHT22;10115;50.906;4.438;2022-07-24T12:30:28;29.50;99.90
19906;DHT22;10115;50.906;4.438;2022-07-24T12:33:04;29.50;99.90
19906;DHT22;10115;50.906;4.438;2022-07-24T12:35:33;29.50;99.90
19906;DHT22;10115;50.906;4.438;2022-07-24T12:38:00;30.00;99.90
19906;DHT22;10115;50.906;4.438;2022-07-24T12:40:37;30.50;99.90
19906;DHT22;10115;50.906;4.438;2022-07-24T12:43:05;31.10;99.90
19906;DHT22;10115;50.906;4.438;2022-07-24T12:45:31;30.80;99.90
19906;DHT22;10115;50.906;4.438;2022-07-24T12:48:15;30.60;99.90
19906;DHT22;10115;50.906;4.438;2022-07-24T12:51:02;30.60;99.90
19906;DHT22;10115;50.906;4.438;2022-07-24T12:53:30;30.50;99.90
19906;DHT22;10115;50.906;4.438;2022-07-24T12:56:06;30.80;99.90
19906;DHT22;10115;50.906;4.438;2022-07-24T13:01:21;31.20;99.90
19906;DHT22;10115;50.906;4.438;2022-07-24T13:03:55;31.00;99.90
19906;DHT22;10115;50.906;4.438;2022-07-24T13:06:41;31.10;99.90
19906;DHT22;10115;50.906;4.438;2022-07-24T13:09:08;31.50;99.90
19906;DHT22;10115;50.906;4.438;2022-07-24T13:11:39;31.70;99.90
19906;DHT22;10115;50.906;4.438;2022-07-24T13:14:06;32.40;99.90
19906;DHT22;10115;50.906;4.438;2022-07-24T13:16:34;33.20;99.90
19906;DHT22;10115;50.906;4.438;2022-07-24T13:19:00;34.00;99.90
19906;DHT22;10115;50.906;4.438;2022-07-24T13:21:27;33.20;99.90
19906;DHT22;10115;50.906;4.438;2022-07-24T13:23:53;32.00;99.90
19906;DHT22;10115;50.906;4.438;2022-07-24T13:26:19;32.40;99.90
19906;DHT22;10115;50.906;4.438;2022-07-24T13:28:45;33.80;99.90
19906;DHT22;10115;50.906;4.438;2022-07-24T13:31:11;34.10;99.90
19906;DHT22;10115;50.906;4.438;2022-07-24T13:33:37;33.50;99.90
19906;DHT22;10115;50.906;4.438;2022-07-24T13:36:03;33.40;99.90
19906;DHT22;10115;50.906;4.438;2022-07-24T13:38:29;34.00;99.90
19906;DHT22;10115;50.906;4.438;2022-07-24T13:40:55;33.80;99.90
19906;DHT22;10115;50.906;4.438;2022-07-24T13:43:21;34.60;99.90
19906;DHT22;10115;50.906;4.438;2022-07-24T13:45:46;32.60;99.90
19906;DHT22;10115;50.906;4.438;2022-07-24T13:48:12;31.90;99.90
19906;DHT22;10115;50.906;4.438;2022-07-24T13:50:38;32.60;99.90
19906;DHT22;10115;50.906;4.438;2022-07-24T13:53:03;32.30;99.90
19906;DHT22;10115;50.906;4.438;2022-07-24T13:55:31;33.30;99.90
19906;DHT22;10115;50.906;4.438;2022-07-24T13:57:57;33.50;99.90
19906;DHT22;10115;50.906;4.438;2022-07-24T14:00:23;32.80;99.90
19906;DHT22;10115;50.906;4.438;2022-07-24T14:02:50;33.00;99.90
19906;DHT22;10115;50.906;4.438;2022-07-24T14:05:23;33.60;99.90
19906;DHT22;10115;50.906;4.438;2022-07-24T14:07:49;34.30;99.90
19906;DHT22;10115;50.906;4.438;2022-07-24T14:10:15;35.20;99.90
19906;DHT22;10115;50.906;4.438;2022-07-24T14:12:41;35.00;99.90
19906;DHT22;10115;50.906;4.438;2022-07-24T14:15:07;34.90;99.90
19906;DHT22;10115;50.906;4.438;2022-07-24T14:17:34;35.90;99.90
19906;DHT22;10115;50.906;4.438;2022-07-24T14:20:01;34.80;99.90
19906;DHT22;10115;50.906;4.438;2022-07-24T14:22:27;33.40;99.90
19906;DHT22;10115;50.906;4.438;2022-07-24T14:24:52;33.40;99.90
19906;DHT22;10115;50.906;4.438;2022-07-24T14:27:18;34.30;99.90
19906;DHT22;10115;50.906;4.438;2022-07-24T14:29:44;34.40;99.90
19906;DHT22;10115;50.906;4.438;2022-07-24T14:32:09;33.60;99.90
19906;DHT22;10115;50.906;4.438;2022-07-24T14:34:35;34.30;99.90
19906;DHT22;10115;50.906;4.438;2022-07-24T14:37:01;35.50;99.90
19906;DHT22;10115;50.906;4.438;2022-07-24T14:39:27;35.70;99.90
19906;DHT22;10115;50.906;4.438;2022-07-24T14:41:57;36.20;99.90
19906;DHT22;10115;50.906;4.438;2022-07-24T14:44:23;34.50;99.90
19906;DHT22;10115;50.906;4.438;2022-07-24T14:46:48;34.10;99.90
19906;DHT22;10115;50.906;4.438;2022-07-24T14:49:14;34.70;99.90
19906;DHT22;10115;50.906;4.438;2022-07-24T14:51:40;34.60;99.90
19906;DHT22;10115;50.906;4.438;2022-07-24T14:54:06;34.50;99.90
19906;DHT22;10115;50.906;4.438;2022-07-24T14:56:32;33.70;99.90
19906;DHT22;10115;50.906;4.438;2022-07-24T14:58:57;34.80;99.90
19906;DHT22;10115;50.906;4.438;2022-07-24T15:01:23;35.50;99.90
19906;DHT22;10115;50.906;4.438;2022-07-24T15:03:49;34.80;99.90
19906;DHT22;10115;50.906;4.438;2022-07-24T15:06:15;34.30;99.90
19906;DHT22;10115;50.906;4.438;2022-07-24T15:08:40;34.80;99.90
19906;DHT22;10115;50.906;4.438;2022-07-24T15:11:06;34.60;99.90
19906;DHT22;10115;50.906;4.438;2022-07-24T15:13:32;34.40;99.90
19906;DHT22;10115;50.906;4.438;2022-07-24T15:15:57;35.30;99.90
19906;DHT22;10115;50.906;4.438;2022-07-24T15:18:23;36.20;99.90
19906;DHT22;10115;50.906;4.438;2022-07-24T15:20:49;34.80;99.90
19906;DHT22;10115;50.906;4.438;2022-07-24T15:23:14;35.80;99.90
19906;DHT22;10115;50.906;4.438;2022-07-24T15:25:40;37.20;99.90
19906;DHT22;10115;50.906;4.438;2022-07-24T15:28:06;37.00;98.50
19906;DHT22;10115;50.906;4.438;2022-07-24T15:30:31;35.50;99.00
19906;DHT22;10115;50.906;4.438;2022-07-24T15:32:57;36.00;99.60
19906;DHT22;10115;50.906;4.438;2022-07-24T15:35:27;35.80;99.00
19906;DHT22;10115;50.906;4.438;2022-07-24T15:37:53;37.10;97.80
19906;DHT22;10115;50.906;4.438;2022-07-24T15:40:18;36.30;97.70
19906;DHT22;10115;50.906;4.438;2022-07-24T15:42:44;35.80;97.80
19906;DHT22;10115;50.906;4.438;2022-07-24T15:45:10;35.70;98.20
19906;DHT22;10115;50.906;4.438;2022-07-24T15:47:36;35.70;97.90
19906;DHT22;10115;50.906;4.438;2022-07-24T15:50:02;37.10;96.80
19906;DHT22;10115;50.906;4.438;2022-07-24T15:52:28;36.90;96.70
19906;DHT22;10115;50.906;4.438;2022-07-24T15:54:54;35.60;97.00
19906;DHT22;10115;50.906;4.438;2022-07-24T15:57:19;34.30;97.40
19906;DHT22;10115;50.906;4.438;2022-07-24T15:59:45;34.90;97.50
19906;DHT22;10115;50.906;4.438;2022-07-24T16:02:11;35.70;96.50